sensor_id;sensor_type;location;lat;lon;timestamp;pressure;altitude;pressure_sealevel;temperature;humidity
13612;BME280;6877;51.436;6.774;2023-04-22T00:00:09;100388.66;;;7.62;100.00
13612;BME280;6877;51.436;6.774;2023-04-22T00:02:42;100386.91;;;7.66;100.00
13612;BME280;6877;51.436;6.774;2023-04-22T00:05:13;100388.66;;;7.62;100.00
13612;BME280;6877;51.436;6.774;2023-04-22T00:07:45;100387.84;;;7.59;100.00
13612;BME280;6877;51.436;6.774;2023-04-22T00:10:16;100378.25;;;7.62;100.00
13612;BME280;6877;51.436;6.774;2023-04-22T00:12:48;100385.25;;;7.59;100.00
13612;BME280;6877;51.436;6.774;2023-04-22T00:15:14;100383.66;;;7.47;100.00
13612;BME280;6877;51.436;6.774;2023-04-22T00:17:47;100381.22;;;7.30;100.00
13612;BME280;6877;51.436;6.774;2023-04-22T00:20:19;100387.38;;;7.23;100.00
13612;BME280;6877;51.436;6.774;2023-04-22T00:22:53;100383.13;;;7.14;100.00
13612;BME280;6877;51.436;6.774;2023-04-22T00:25:19;100387.53;;;7.08;100.00
13612;BME280;6877;51.436;6.774;2023-04-22T00:27:46;100380.69;;;7.01;100.00
13612;BME280;6877;51.436;6.774;2023-04-22T00:30:17;100372.91;;;6.97;100.00
13612;BME280;6877;51.436;6.774;2023-04-22T00:32:48;100376.28;;;7.06;100.00
13612;BME280;6877;51.436;6.774;2023-04-22T00:35:20;100384.09;;;7.06;100.00
13612;BME280;6877;51.436;6.774;2023-04-22T00:37:46;100388.44;;;7.07;100.00
13612;BME280;6877;51.436;6.774;2023-04-22T00:40:18;100378.03;;;7.07;100.00
13612;BME280;6877;51.436;6.774;2023-04-22T00:42:45;100374.56;;;7.06;100.00
13612;BME280;6877;51.436;6.774;2023-04-22T00:45:16;100373.69;;;7.07;100.00
13612;BME280;6877;51.436;6.774;2023-04-22T00:47:45;100373.69;;;7.07;100.00
13612;BME280;6877;51.436;6.774;2023-04-22T00:50:12;100371.94;;;7.09;100.00
13612;BME280;6877;51.436;6.774;2023-04-22T00:52:38;100367.56;;;7.13;100.00
13612;BME280;6877;51.436;6.774;2023-04-22T00:55:05;100363.19;;;7.16;100.00
13612;BME280;6877;51.436;6.774;2023-04-22T00:57:32;100377.00;;;7.18;100.00
13612;BME280;6877;51.436;6.774;2023-04-22T00:59:59;100374.38;;;7.23;100.00
13612;BME280;6877;51.436;6.774;2023-04-22T01:02:27;100366.53;;;7.25;100.00
13612;BME280;6877;51.436;6.774;2023-04-22T01:04:53;100364.84;;;7.22;100.00
13612;BME280;6877;51.436;6.774;2023-04-22T01:07:25;100360.53;;;7.18;100.00
13612;BME280;6877;51.436;6.774;2023-04-22T01:09:52;100354.47;;;7.17;100.00
13612;BME280;6877;51.436;6.774;2023-04-22T01:12:18;100356.13;;;7.25;100.00
13612;BME280;6877;51.436;6.774;2023-04-22T01:14:45;100353.53;;;7.26;100.00
13612;BME280;6877;51.436;6.774;2023-04-22T01:17:11;100352.69;;;7.23;100.00
13612;BME280;6877;51.436;6.774;2023-04-22T01:19:39;100357.94;;;7.19;100.00
13612;BME280;6877;51.436;6.774;2023-04-22T01:22:07;100351.88;;;7.19;100.00
13612;BME280;6877;51.436;6.774;2023-04-22T01:24:41;100350.91;;;7.25;100.00
13612;BME280;6877;51.436;6.774;2023-04-22T01:27:08;100358.75;;;7.23;100.00
13612;BME280;6877;51.436;6.774;2023-04-22T01:29:36;100356.97;;;7.27;100.00
13612;BME280;6877;51.436;6.774;2023-04-22T01:32:03;100352.53;;;7.38;100.00
13612;BME280;6877;51.436;6.774;2023-04-22T01:34:30;100356.69;;;7.51;100.00
13612;BME280;6877;51.436;6.774;2023-04-22T01:37:02;100353.28;;;7.48;100.00
13612;BME280;6877;51.436;6.774;2023-04-22T01:39:34;100352.47;;;7.42;100.00
13612;BME280;6877;51.436;6.774;2023-04-22T01:42:05;100343.88;;;7.36;100.00
13612;BME280;6877;51.436;6.774;2023-04-22T01:44:39;100346.47;;;7.34;100.00
13612;BME280;6877;51.436;6.774;2023-04-22T01:47:05;100343.88;;;7.36;100.00
13612;BME280;6877;51.436;6.774;2023-04-22T01:49:32;100348.22;;;7.34;100.00
13612;BME280;6877;51.436;6.774;2023-04-22T01:51:59;100349.13;;;7.30;100.00
13612;BME280;6877;51.436;6.774;2023-04-22T01:54:25;100350.88;;;7.28;100.00
13612;BME280;6877;51.436;6.774;2023-04-22T01:56:53;100344.81;;;7.29;100.00
13612;BME280;6877;51.436;6.774;2023-04-22T01:59:20;100357.84;;;7.27;100.00
13612;BME280;6877;51.436;6.774;2023-04-22T02:01:47;100357.88;;;7.26;100.00
13612;BME280;6877;51.436;6.774;2023-04-22T02:04:18;100359.63;;;7.24;100.00
13612;BME280;6877;51.436;6.774;2023-04-22T02:06:50;100362.22;;;7.24;100.00
13612;BME280;6877;51.436;6.774;2023-04-22T02:09:21;100357.91;;;7.23;100.00
13612;BME280;6877;51.436;6.774;2023-04-22T02:11:47;100364.84;;;7.20;100.00
13612;BME280;6877;51.436;6.774;2023-04-22T02:14:19;100357.94;;;7.19;100.00
13612;BME280;6877;51.436;6.774;2023-04-22T02:16:45;100348.41;;;7.17;100.00
13612;BME280;6877;51.436;6.774;2023-04-22T02:19:17;100346.72;;;7.16;100.00
13612;BME280;6877;51.436;6.774;2023-04-22T02:21:48;100351.03;;;7.15;100.00
13612;BME280;6877;51.436;6.774;2023-04-22T02:24:15;100356.25;;;7.12;100.00
13612;BME280;6877;51.436;6.774;2023-04-22T02:26:41;100345.03;;;7.10;100.00
13612;BME280;6877;51.436;6.774;2023-04-22T02:29:08;100351.00;;;7.18;100.00
13612;BME280;6877;51.436;6.774;2023-04-22T02:31:34;100347.41;;;7.30;100.00
13612;BME280;6877;51.436;6.774;2023-04-22T02:34:00;100342.16;;;7.35;100.00
13612;BME280;6877;51.436;6.774;2023-04-22T02:36:27;100350.84;;;7.31;100.00
13612;BME280;6877;51.436;6.774;2023-04-22T02:38:53;100338.78;;;7.25;100.00
13612;BME280;6877;51.436;6.774;2023-04-22T02:41:20;100346.59;;;7.25;100.00
13612;BME280;6877;51.436;6.774;2023-04-22T02:43:46;100339.66;;;7.24;100.00
13612;BME280;6877;51.436;6.774;2023-04-22T02:46:13;100333.59;;;7.24;100.00
13612;BME280;6877;51.436;6.774;2023-04-22T02:48:41;100335.28;;;7.28;100.00
13612;BME280;6877;51.436;6.774;2023-04-22T02:51:08;100335.22;;;7.31;100.00
13612;BME280;6877;51.436;6.774;2023-04-22T02:53:34;100329.16;;;7.32;100.00
13612;BME280;6877;51.436;6.774;2023-04-22T02:56:06;100324.75;;;7.37;100.00
13612;BME280;6877;51.436;6.774;2023-04-22T02:58:38;100322.09;;;7.41;100.00
13612;BME280;6877;51.436;6.774;2023-04-22T03:01:10;100317.69;;;7.48;100.00
13612;BME280;6877;51.436;6.774;2023-04-22T03:03:36;100315.09;;;7.48;100.00
13612;BME280;6877;51.436;6.774;2023-04-22T03:06:08;100313.38;;;7.46;100.00
13612;BME280;6877;51.436;6.774;2023-04-22T03:08:35;100309.88;;;7.47;100.00
13612;BME280;6877;51.436;6.774;2023-04-22T03:11:01;100308.16;;;7.47;100.00
13612;BME280;6877;51.436;6.774;2023-04-22T03:13:32;100308.16;;;7.46;100.00
13612;BME280;6877;51.436;6.774;2023-04-22T03:15:59;100306.41;;;7.48;100.00
13612;BME280;6877;51.436;6.774;2023-04-22T03:18:25;100296.84;;;7.48;100.00
13612;BME280;6877;51.436;6.774;2023-04-22T03:20:57;100301.19;;;7.48;100.00
13612;BME280;6877;51.436;6.774;2023-04-22T03:23:28;100296.78;;;7.54;100.00
13612;BME280;6877;51.436;6.774;2023-04-22T03:26:00;100293.28;;;7.55;100.00
13612;BME280;6877;51.436;6.774;2023-04-22T03:28:26;100285.47;;;7.55;100.00
13612;BME280;6877;51.436;6.774;2023-04-22T03:30:57;100293.31;;;7.54;100.00
13612;BME280;6877;51.436;6.774;2023-04-22T03:33:24;100292.47;;;7.52;100.00
13612;BME280;6877;51.436;6.774;2023-04-22T03:35:50;100288.97;;;7.54;100.00
13612;BME280;6877;51.436;6.774;2023-04-22T03:38:22;100287.25;;;7.52;100.00
13612;BME280;6877;51.436;6.774;2023-04-22T03:40:48;100288.09;;;7.54;100.00
13612;BME280;6877;51.436;6.774;2023-04-22T03:43:14;100287.19;;;7.56;100.00
13612;BME280;6877;51.436;6.774;2023-04-22T03:45:41;100292.34;;;7.61;100.00
13612;BME280;6877;51.436;6.774;2023-04-22T03:48:07;100280.19;;;7.61;100.00
13612;BME280;6877;51.436;6.774;2023-04-22T03:50:34;100277.56;;;7.63;100.00
13612;BME280;6877;51.436;6.774;2023-04-22T03:53:00;100273.22;;;7.63;100.00
13612;BME280;6877;51.436;6.774;2023-04-22T03:55:32;100276.63;;;7.67;100.00
13612;BME280;6877;51.436;6.774;2023-04-22T03:57:58;100278.31;;;7.71;100.00
13612;BME280;6877;51.436;6.774;2023-04-22T04:00:30;100267.03;;;7.71;100.00
13612;BME280;6877;51.436;6.774;2023-04-22T04:02:56;100260.94;;;7.72;100.00
13612;BME280;6877;51.436;6.774;2023-04-22T04:05:23;100265.22;;;7.74;100.00
13612;BME280;6877;51.436;6.774;2023-04-22T04:07:49;100266.94;;;7.77;100.00
13612;BME280;6877;51.436;6.774;2023-04-22T04:10:16;100267.78;;;7.79;100.00
13612;BME280;6877;51.436;6.774;2023-04-22T04:12:42;100273.84;;;7.78;100.00
13612;BME280;6877;51.436;6.774;2023-04-22T04:15:13;100267.78;;;7.77;100.00
13612;BME280;6877;51.436;6.774;2023-04-22T04:17:45;100267.78;;;7.77;100.00
13612;BME280;6877;51.436;6.774;2023-04-22T04:20:11;100266.09;;;7.76;100.00
13612;BME280;6877;51.436;6.774;2023-04-22T04:22:43;100266.91;;;7.78;100.00
13612;BME280;6877;51.436;6.774;2023-04-22T04:25:09;100260.84;;;7.78;100.00
13612;BME280;6877;51.436;6.774;2023-04-22T04:27:36;100249.59;;;7.76;100.00
13612;BME280;6877;51.436;6.774;2023-04-22T04:30:07;100250.47;;;7.76;100.00
13612;BME280;6877;51.436;6.774;2023-04-22T04:32:34;100252.22;;;7.76;100.00
13612;BME280;6877;51.436;6.774;2023-04-22T04:35:01;100251.34;;;7.74;100.00
13612;BME280;6877;51.436;6.774;2023-04-22T04:37:28;100249.59;;;7.76;100.00
13612;BME280;6877;51.436;6.774;2023-04-22T04:39:54;100251.22;;;7.81;100.00
13612;BME280;6877;51.436;6.774;2023-04-22T04:42:24;100252.88;;;7.87;100.00
13612;BME280;6877;51.436;6.774;2023-04-22T04:44:55;100247.66;;;7.87;100.00
13612;BME280;6877;51.436;6.774;2023-04-22T04:47:23;100247.66;;;7.87;100.00
13612;BME280;6877;51.436;6.774;2023-04-22T04:49:50;100243.38;;;7.84;100.00
13612;BME280;6877;51.436;6.774;2023-04-22T04:52:24;100245.16;;;7.82;100.00
13612;BME280;6877;51.436;6.774;2023-04-22T04:54:50;100246.00;;;7.83;100.00
13612;BME280;6877;51.436;6.774;2023-04-22T04:57:17;100245.16;;;7.82;100.00
13612;BME280;6877;51.436;6.774;2023-04-22T04:59:43;100245.13;;;7.84;100.00
13612;BME280;6877;51.436;6.774;2023-04-22T05:02:14;100239.03;;;7.85;100.00
13612;BME280;6877;51.436;6.774;2023-04-22T05:04:41;100232.91;;;7.87;100.00
13612;BME280;6877;51.436;6.774;2023-04-22T05:07:07;100231.16;;;7.88;100.00
13612;BME280;6877;51.436;6.774;2023-04-22T05:09:34;100234.59;;;7.90;100.00
13612;BME280;6877;51.436;6.774;2023-04-22T05:12:03;100231.94;;;7.93;100.00
13612;BME280;6877;51.436;6.774;2023-04-22T05:14:29;100231.00;;;7.97;100.00
13612;BME280;6877;51.436;6.774;2023-04-22T05:16:56;100230.84;;;8.08;100.00
13612;BME280;6877;51.436;6.774;2023-04-22T05:19:23;100229.78;;;8.20;100.00
13612;BME280;6877;51.436;6.774;2023-04-22T05:21:54;100227.84;;;8.31;100.00
13612;BME280;6877;51.436;6.774;2023-04-22T05:24:20;100229.41;;;8.41;100.00
13612;BME280;6877;51.436;6.774;2023-04-22T05:26:47;100231.88;;;8.50;100.00
13612;BME280;6877;51.436;6.774;2023-04-22T05:29:18;100221.25;;;8.59;100.00
13612;BME280;6877;51.436;6.774;2023-04-22T05:31:50;100226.31;;;8.69;100.00
13612;BME280;6877;51.436;6.774;2023-04-22T05:34:16;100227.09;;;8.74;100.00
13612;BME280;6877;51.436;6.774;2023-04-22T05:36:47;100221.75;;;8.80;100.00
13612;BME280;6877;51.436;6.774;2023-04-22T05:39:14;100227.66;;;8.90;100.00
13612;BME280;6877;51.436;6.774;2023-04-22T05:41:45;100230.94;;;8.99;100.00
13612;BME280;6877;51.436;6.774;2023-04-22T05:44:12;100230.69;;;9.10;100.00
13612;BME280;6877;51.436;6.774;2023-04-22T05:46:38;100243.59;;;9.18;100.00
13612;BME280;6877;51.436;6.774;2023-04-22T05:49:04;100250.41;;;9.25;100.00
13612;BME280;6877;51.436;6.774;2023-04-22T05:51:31;100235.53;;;9.30;100.00
13612;BME280;6877;51.436;6.774;2023-04-22T05:53:58;100230.97;;;9.38;100.00
13612;BME280;6877;51.436;6.774;2023-04-22T05:56:24;100228.13;;;9.49;100.00
13612;BME280;6877;51.436;6.774;2023-04-22T05:58:51;100233.09;;;9.60;100.00
13612;BME280;6877;51.436;6.774;2023-04-22T06:01:18;100250.22;;;9.73;100.00
13612;BME280;6877;51.436;6.774;2023-04-22T06:03:44;100251.56;;;9.89;100.00
13612;BME280;6877;51.436;6.774;2023-04-22T06:06:10;100249.56;;;10.01;100.00
13612;BME280;6877;51.436;6.774;2023-04-22T06:08:37;100247.66;;;10.09;100.00
13612;BME280;6877;51.436;6.774;2023-04-22T06:11:04;100242.88;;;10.25;100.00
13612;BME280;6877;51.436;6.774;2023-04-22T06:13:30;100240.69;;;10.43;100.00
13612;BME280;6877;51.436;6.774;2023-04-22T06:16:01;100238.41;;;10.64;100.00
13612;BME280;6877;51.436;6.774;2023-04-22T06:18:30;100242.28;;;10.82;100.00
13612;BME280;6877;51.436;6.774;2023-04-22T06:20:57;100234.94;;;10.95;100.00
13612;BME280;6877;51.436;6.774;2023-04-22T06:23:24;100243.50;;;11.00;100.00
13612;BME280;6877;51.436;6.774;2023-04-22T06:25:50;100243.31;;;11.07;100.00
13612;BME280;6877;51.436;6.774;2023-04-22T06:28:16;100243.16;;;11.12;100.00
13612;BME280;6877;51.436;6.774;2023-04-22T06:30:43;100241.03;;;11.25;100.00
13612;BME280;6877;51.436;6.774;2023-04-22T06:33:14;100239.91;;;11.33;100.00
13612;BME280;6877;51.436;6.774;2023-04-22T06:35:45;100241.88;;;11.83;100.00
13612;BME280;6877;51.436;6.774;2023-04-22T06:38:12;100243.28;;;12.21;100.00
13612;BME280;6877;51.436;6.774;2023-04-22T06:40:38;100239.00;;;12.45;100.00
13612;BME280;6877;51.436;6.774;2023-04-22T06:43:05;100237.69;;;12.57;100.00
13612;BME280;6877;51.436;6.774;2023-04-22T06:45:31;100238.84;;;12.73;98.76
13612;BME280;6877;51.436;6.774;2023-04-22T06:47:58;100244.97;;;12.99;100.00
13612;BME280;6877;51.436;6.774;2023-04-22T06:50:24;100241.78;;;13.38;100.00
13612;BME280;6877;51.436;6.774;2023-04-22T06:52:51;100241.94;;;13.79;98.25
13612;BME280;6877;51.436;6.774;2023-04-22T06:55:17;100239.16;;;14.26;97.09
13612;BME280;6877;51.436;6.774;2023-04-22T06:57:49;100228.25;;;14.76;92.93
13612;BME280;6877;51.436;6.774;2023-04-22T07:00:16;100239.06;;;15.66;95.01
13612;BME280;6877;51.436;6.774;2023-04-22T07:02:48;100243.38;;;16.57;90.06
13612;BME280;6877;51.436;6.774;2023-04-22T07:05:14;100243.63;;;17.52;89.42
13612;BME280;6877;51.436;6.774;2023-04-22T07:07:41;100244.72;;;18.41;85.29
13612;BME280;6877;51.436;6.774;2023-04-22T07:10:08;100247.88;;;18.62;72.99
13612;BME280;6877;51.436;6.774;2023-04-22T07:12:35;100247.94;;;18.91;75.64
13612;BME280;6877;51.436;6.774;2023-04-22T07:15:02;100240.09;;;19.18;72.86
13612;BME280;6877;51.436;6.774;2023-04-22T07:17:33;100234.78;;;19.18;65.30
13612;BME280;6877;51.436;6.774;2023-04-22T07:20:00;100241.72;;;19.20;64.84
13612;BME280;6877;51.436;6.774;2023-04-22T07:22:26;100242.13;;;19.97;68.25
13612;BME280;6877;51.436;6.774;2023-04-22T07:24:53;100245.50;;;20.53;66.74
13612;BME280;6877;51.436;6.774;2023-04-22T07:27:24;100243.81;;;20.65;65.34
13612;BME280;6877;51.436;6.774;2023-04-22T07:29:55;100231.78;;;20.59;61.38
13612;BME280;6877;51.436;6.774;2023-04-22T07:32:22;100230.09;;;20.19;59.73
13612;BME280;6877;51.436;6.774;2023-04-22T07:34:49;100243.25;;;20.20;60.12
13612;BME280;6877;51.436;6.774;2023-04-22T07:37:20;100229.13;;;20.20;60.56
13612;BME280;6877;51.436;6.774;2023-04-22T07:39:47;100231.28;;;20.27;58.49
13612;BME280;6877;51.436;6.774;2023-04-22T07:42:15;100227.88;;;20.38;58.74
13612;BME280;6877;51.436;6.774;2023-04-22T07:44:41;100222.53;;;20.78;59.46
13612;BME280;6877;51.436;6.774;2023-04-22T07:47:13;100226.84;;;21.30;56.71
13612;BME280;6877;51.436;6.774;2023-04-22T07:49:39;100225.34;;;21.99;54.07
13612;BME280;6877;51.436;6.774;2023-04-22T07:52:05;100230.19;;;22.65;53.35
13612;BME280;6877;51.436;6.774;2023-04-22T07:54:32;100222.72;;;23.15;51.32
13612;BME280;6877;51.436;6.774;2023-04-22T07:57:03;100222.38;;;24.18;51.05
13612;BME280;6877;51.436;6.774;2023-04-22T07:59:30;100218.38;;;25.17;49.80
13612;BME280;6877;51.436;6.774;2023-04-22T08:01:56;100210.56;;;25.45;43.16
13612;BME280;6877;51.436;6.774;2023-04-22T08:04:22;100208.53;;;26.06;42.04
13612;BME280;6877;51.436;6.774;2023-04-22T08:06:49;100204.03;;;26.93;41.41
13612;BME280;6877;51.436;6.774;2023-04-22T08:09:20;100211.69;;;27.25;36.29
13612;BME280;6877;51.436;6.774;2023-04-22T08:11:46;100208.13;;;27.34;38.09
13612;BME280;6877;51.436;6.774;2023-04-22T08:14:18;100214.28;;;28.26;36.71
13612;BME280;6877;51.436;6.774;2023-04-22T08:16:44;100198.50;;;29.09;38.24
13612;BME280;6877;51.436;6.774;2023-04-22T08:19:16;100207.25;;;29.45;34.59
13612;BME280;6877;51.436;6.774;2023-04-22T08:21:42;100209.75;;;28.70;32.81
13612;BME280;6877;51.436;6.774;2023-04-22T08:24:09;100212.25;;;28.28;34.34
13612;BME280;6877;51.436;6.774;2023-04-22T08:26:41;100224.38;;;28.50;34.49
13612;BME280;6877;51.436;6.774;2023-04-22T08:29:12;100205.22;;;27.45;34.40
13612;BME280;6877;51.436;6.774;2023-04-22T08:31:43;100192.00;;;26.50;36.21
13612;BME280;6877;51.436;6.774;2023-04-22T08:34:10;100205.09;;;27.65;36.09
13612;BME280;6877;51.436;6.774;2023-04-22T08:36:41;100191.84;;;29.21;34.29
13612;BME280;6877;51.436;6.774;2023-04-22T08:39:08;100202.50;;;30.06;31.72
13612;BME280;6877;51.436;6.774;2023-04-22T08:41:35;100188.81;;;29.24;31.36
13612;BME280;6877;51.436;6.774;2023-04-22T08:44:07;100182.59;;;30.48;30.91
13612;BME280;6877;51.436;6.774;2023-04-22T08:46:39;100194.22;;;31.21;33.17
13612;BME280;6877;51.436;6.774;2023-04-22T08:49:10;100200.72;;;30.95;32.69
13612;BME280;6877;51.436;6.774;2023-04-22T08:51:42;100192.25;;;29.43;33.39
13612;BME280;6877;51.436;6.774;2023-04-22T08:54:10;100190.81;;;28.18;30.91
13612;BME280;6877;51.436;6.774;2023-04-22T08:56:43;100177.06;;;28.65;32.76
13612;BME280;6877;51.436;6.774;2023-04-22T08:59:15;100181.41;;;30.10;30.06
13612;BME280;6877;51.436;6.774;2023-04-22T09:01:42;100176.50;;;30.62;31.74
13612;BME280;6877;51.436;6.774;2023-04-22T09:04:09;100169.59;;;31.07;29.37
13612;BME280;6877;51.436;6.774;2023-04-22T09:06:37;100173.19;;;31.93;28.94
13612;BME280;6877;51.436;6.774;2023-04-22T09:09:04;100182.19;;;32.31;29.35
13612;BME280;6877;51.436;6.774;2023-04-22T09:11:31;100174.50;;;32.58;30.15
13612;BME280;6877;51.436;6.774;2023-04-22T09:14:03;100172.09;;;33.59;28.13
13612;BME280;6877;51.436;6.774;2023-04-22T09:16:30;100168.44;;;33.00;26.94
13612;BME280;6877;51.436;6.774;2023-04-22T09:18:57;100177.03;;;32.74;24.94
13612;BME280;6877;51.436;6.774;2023-04-22T09:21:31;100169.63;;;33.13;27.42
13612;BME280;6877;51.436;6.774;2023-04-22T09:23:59;100166.69;;;33.08;23.28
13612;BME280;6877;51.436;6.774;2023-04-22T09:26:25;100176.63;;;32.63;26.45
13612;BME280;6877;51.436;6.774;2023-04-22T09:28:57;100179.47;;;32.99;25.55
13612;BME280;6877;51.436;6.774;2023-04-22T09:31:26;100171.53;;;31.92;27.58
13612;BME280;6877;51.436;6.774;2023-04-22T09:33:55;100174.13;;;31.77;31.19
13612;BME280;6877;51.436;6.774;2023-04-22T09:36:25;100174.06;;;32.69;32.08
13612;BME280;6877;51.436;6.774;2023-04-22T09:38:57;100175.94;;;34.35;28.01
13612;BME280;6877;51.436;6.774;2023-04-22T09:41:34;100165.94;;;33.35;24.04
13612;BME280;6877;51.436;6.774;2023-04-22T09:44:13;100164.44;;;32.67;25.61
13612;BME280;6877;51.436;6.774;2023-04-22T09:46:41;100159.19;;;32.13;26.95
13612;BME280;6877;51.436;6.774;2023-04-22T09:49:08;100153.84;;;30.71;27.74
13612;BME280;6877;51.436;6.774;2023-04-22T09:51:39;100152.06;;;29.66;27.59
13612;BME280;6877;51.436;6.774;2023-04-22T09:54:09;100154.75;;;29.82;26.92
13612;BME280;6877;51.436;6.774;2023-04-22T09:59:21;100147.16;;;27.07;29.81
13612;BME280;6877;51.436;6.774;2023-04-22T10:01:51;100136.81;;;26.85;33.29
13612;BME280;6877;51.436;6.774;2023-04-22T10:04:18;100147.16;;;27.07;34.84
13612;BME280;6877;51.436;6.774;2023-04-22T10:06:51;100148.03;;;28.07;33.37
13612;BME280;6877;51.436;6.774;2023-04-22T10:09:21;100146.53;;;30.08;31.40
13612;BME280;6877;51.436;6.774;2023-04-22T10:11:49;100149.34;;;30.47;28.65
13612;BME280;6877;51.436;6.774;2023-04-22T10:14:16;100149.16;;;29.59;28.18
13612;BME280;6877;51.436;6.774;2023-04-22T10:16:46;100148.22;;;28.83;31.00
13612;BME280;6877;51.436;6.774;2023-04-22T10:19:22;100150.84;;;27.52;31.08
13612;BME280;6877;51.436;6.774;2023-04-22T10:21:55;100143.03;;;27.13;30.81
13612;BME280;6877;51.436;6.774;2023-04-22T10:24:25;100138.41;;;27.78;30.72
13612;BME280;6877;51.436;6.774;2023-04-22T10:26:56;100133.72;;;30.27;28.09
13612;BME280;6877;51.436;6.774;2023-04-22T10:29:25;100139.88;;;31.47;25.20
13612;BME280;6877;51.436;6.774;2023-04-22T10:31:55;100152.00;;;32.20;24.30
13612;BME280;6877;51.436;6.774;2023-04-22T10:34:23;100147.59;;;32.71;23.30
13612;BME280;6877;51.436;6.774;2023-04-22T10:39:37;100151.56;;;31.93;24.02
13612;BME280;6877;51.436;6.774;2023-04-22T10:42:11;100149.06;;;31.83;23.83
13612;BME280;6877;51.436;6.774;2023-04-22T10:44:50;100144.41;;;31.46;24.23
13612;BME280;6877;51.436;6.774;2023-04-22T10:47:30;100136.03;;;31.02;24.98
13612;BME280;6877;51.436;6.774;2023-04-22T10:50:10;100130.41;;;31.11;24.95
13612;BME280;6877;51.436;6.774;2023-04-22T10:52:38;100135.38;;;31.85;24.82
13612;BME280;6877;51.436;6.774;2023-04-22T10:55:10;100139.78;;;32.24;23.91
13612;BME280;6877;51.436;6.774;2023-04-22T10:57:47;100139.69;;;32.17;23.80
13612;BME280;6877;51.436;6.774;2023-04-22T11:00:31;100131.53;;;32.70;23.58
13612;BME280;6877;51.436;6.774;2023-04-22T11:05:32;100136.72;;;31.81;23.53
13612;BME280;6877;51.436;6.774;2023-04-22T11:08:19;100138.78;;;31.79;23.52
13612;BME280;6877;51.436;6.774;2023-04-22T11:10:48;100127.88;;;31.95;23.88
13612;BME280;6877;51.436;6.774;2023-04-22T11:13:19;100127.91;;;31.41;24.18
13612;BME280;6877;51.436;6.774;2023-04-22T11:15:49;100118.69;;;29.99;26.12
13612;BME280;6877;51.436;6.774;2023-04-22T11:18:21;100120.53;;;30.15;26.29
13612;BME280;6877;51.436;6.774;2023-04-22T11:20:52;100123.44;;;29.14;27.52
13612;BME280;6877;51.436;6.774;2023-04-22T11:23:27;100125.47;;;27.46;29.61
13612;BME280;6877;51.436;6.774;2023-04-22T11:26:03;100122.59;;;26.74;31.24
13612;BME280;6877;51.436;6.774;2023-04-22T11:28:44;100131.91;;;26.80;30.97
13612;BME280;6877;51.436;6.774;2023-04-22T11:31:11;100123.81;;;26.43;31.78
13612;BME280;6877;51.436;6.774;2023-04-22T11:33:37;100120.00;;;26.35;32.27
13612;BME280;6877;51.436;6.774;2023-04-22T11:36:10;100124.19;;;26.57;31.90
13612;BME280;6877;51.436;6.774;2023-04-22T11:38:41;100116.59;;;26.43;31.85
13612;BME280;6877;51.436;6.774;2023-04-22T11:41:19;100118.53;;;26.61;32.14
13612;BME280;6877;51.436;6.774;2023-04-22T11:43:46;100132.22;;;26.95;31.39
13612;BME280;6877;51.436;6.774;2023-04-22T11:46:28;100124.41;;;27.01;32.04
13612;BME280;6877;51.436;6.774;2023-04-22T11:49:10;100125.34;;;26.45;32.04
13612;BME280;6877;51.436;6.774;2023-04-22T11:51:53;100114.72;;;25.97;32.81
13612;BME280;6877;51.436;6.774;2023-04-22T11:54:33;100107.88;;;25.15;34.08
13612;BME280;6877;51.436;6.774;2023-04-22T11:57:10;100110.22;;;24.68;35.22
13612;BME280;6877;51.436;6.774;2023-04-22T11:59:41;100110.53;;;24.02;36.29
13612;BME280;6877;51.436;6.774;2023-04-22T12:02:08;100113.28;;;23.91;36.95
13612;BME280;6877;51.436;6.774;2023-04-22T12:04:37;100113.22;;;24.02;36.80
13612;BME280;6877;51.436;6.774;2023-04-22T12:07:03;100099.47;;;24.07;37.04
13612;BME280;6877;51.436;6.774;2023-04-22T12:09:31;100101.09;;;23.98;37.07
13612;BME280;6877;51.436;6.774;2023-04-22T12:11:58;100106.03;;;23.17;38.13
13612;BME280;6877;51.436;6.774;2023-04-22T12:14:31;100099.13;;;22.92;38.85
13612;BME280;6877;51.436;6.774;2023-04-22T12:16:58;100099.88;;;22.49;39.99
13612;BME280;6877;51.436;6.774;2023-04-22T12:19:27;100109.56;;;22.61;40.06
13612;BME280;6877;51.436;6.774;2023-04-22T12:21:58;100105.31;;;22.59;40.17
13612;BME280;6877;51.436;6.774;2023-04-22T12:24:29;100109.41;;;22.40;40.48
13612;BME280;6877;51.436;6.774;2023-04-22T12:27:01;100110.88;;;22.33;40.72
13612;BME280;6877;51.436;6.774;2023-04-22T12:29:30;100107.34;;;22.21;40.88
13612;BME280;6877;51.436;6.774;2023-04-22T12:32:02;100107.88;;;22.03;41.07
13612;BME280;6877;51.436;6.774;2023-04-22T12:34:34;100108.84;;;22.02;41.85
13612;BME280;6877;51.436;6.774;2023-04-22T12:37:05;100105.53;;;22.33;41.62
13612;BME280;6877;51.436;6.774;2023-04-22T12:39:36;100108.31;;;23.10;39.86
13612;BME280;6877;51.436;6.774;2023-04-22T12:42:04;100095.16;;;23.73;38.66
13612;BME280;6877;51.436;6.774;2023-04-22T12:44:31;100099.88;;;23.81;38.21
13612;BME280;6877;51.436;6.774;2023-04-22T12:46:58;100086.44;;;23.71;38.58
13612;BME280;6877;51.436;6.774;2023-04-22T12:49:25;100086.56;;;23.70;39.16
13612;BME280;6877;51.436;6.774;2023-04-22T12:51:56;100095.53;;;23.36;39.18
13612;BME280;6877;51.436;6.774;2023-04-22T12:54:22;100087.34;;;23.17;39.98
13612;BME280;6877;51.436;6.774;2023-04-22T12:56:54;100098.97;;;23.16;40.14
13612;BME280;6877;51.436;6.774;2023-04-22T12:59:22;100097.19;;;23.49;40.00
13612;BME280;6877;51.436;6.774;2023-04-22T13:01:54;100094.19;;;23.74;39.00
13612;BME280;6877;51.436;6.774;2023-04-22T13:04:20;100095.69;;;23.88;38.66
13612;BME280;6877;51.436;6.774;2023-04-22T13:06:52;100098.81;;;23.72;38.63
13612;BME280;6877;51.436;6.774;2023-04-22T13:09:22;100102.28;;;23.52;39.54
13612;BME280;6877;51.436;6.774;2023-04-22T13:11:49;100097.06;;;23.39;39.80
13612;BME280;6877;51.436;6.774;2023-04-22T13:14:21;100100.22;;;23.01;40.82
13612;BME280;6877;51.436;6.774;2023-04-22T13:16:52;100088.34;;;22.49;42.01